createdAt,value
2019-04-23T00:00:08.851Z,99708.37
2019-04-23T00:02:58.876Z,99710.16
2019-04-23T00:05:48.047Z,99705.01
2019-04-23T00:08:13.410Z,99696.84
2019-04-23T00:10:36.665Z,99694.42
2019-04-23T00:13:05.815Z,99696.65
2019-04-23T00:15:54.810Z,99703.35
2019-04-23T00:18:32.163Z,99697.98
2019-04-23T00:20:57.872Z,99696.48
2019-04-23T00:23:32.760Z,99702.26
2019-04-23T00:26:18.867Z,99688.39
2019-04-23T00:28:47.910Z,99676.16
2019-04-23T00:31:13.654Z,99669.29
2019-04-23T00:33:57.733Z,99668.81
2019-04-23T00:36:19.449Z,99658.89
2019-04-23T00:38:45.476Z,99653.26
2019-04-23T00:41:16.419Z,99643.69
2019-04-23T00:43:54.727Z,99640.42
2019-04-23T00:46:25.200Z,99639.12
2019-04-23T00:48:59.088Z,99633.56
2019-04-23T00:51:27.050Z,99632.19
2019-04-23T00:53:56.731Z,99632.66
2019-04-23T00:56:38.703Z,99632.55
2019-04-23T00:59:03.984Z,99635.95
2019-04-23T01:01:35.833Z,99625.02
2019-04-23T01:04:18.565Z,99620.59
2019-04-23T01:06:54.557Z,99608.48
2019-04-23T01:09:14.134Z,99607.52
2019-04-23T01:11:41.895Z,99605.77
2019-04-23T01:14:14.856Z,99603.61
2019-04-23T01:17:02.649Z,99611.63
2019-04-23T01:19:35.212Z,99615.72
2019-04-23T01:21:39.513Z,99619.53
2019-04-23T01:24:44.640Z,99618.40
2019-04-23T01:27:54.810Z,99622.36
2019-04-23T01:30:15.896Z,99619.06
2019-04-23T01:32:41.053Z,99611.84
2019-04-23T01:37:46.531Z,99594.21
2019-04-23T01:40:26.870Z,99588.40
2019-04-23T01:42:56.152Z,99588.40
2019-04-23T01:45:24.558Z,99581.27
2019-04-23T01:47:54.771Z,99580.09
2019-04-23T01:53:12.329Z,99576.73
2019-04-23T01:55:38.413Z,99581.58
2019-04-23T01:58:21.916Z,99572.72
2019-04-23T02:03:09.446Z,99580.18
2019-04-23T02:05:44.852Z,99585.78
2019-04-23T02:10:51.391Z,99577.89
2019-04-23T02:13:16.509Z,99573.57
2019-04-23T02:15:47.402Z,99573.27
2019-04-23T02:18:18.289Z,99561.78
2019-04-23T02:20:54.602Z,99553.89
2019-04-23T02:23:59.685Z,99551.78
2019-04-23T02:26:20.055Z,99552.70
2019-04-23T02:29:13.306Z,99550.45
2019-04-23T02:31:45.091Z,99544.63
2019-04-23T02:34:15.044Z,99548.41
2019-04-23T02:36:32.533Z,99548.55
2019-04-23T02:38:57.980Z,99542.28
2019-04-23T02:41:41.496Z,99539.59
2019-04-23T02:44:11.538Z,99534.33
2019-04-23T02:46:31.305Z,99541.19
2019-04-23T02:49:38.187Z,99540.36
2019-04-23T02:51:45.518Z,99530.92
2019-04-23T02:54:26.600Z,99526.72
2019-04-23T02:59:29.080Z,99526.36
2019-04-23T03:01:57.928Z,99533.42
2019-04-23T03:04:28.659Z,99523.30
2019-04-23T03:06:55.595Z,99519.70
2019-04-23T03:12:09.789Z,99520.05
2019-04-23T03:14:33.409Z,99522.61
2019-04-23T03:17:02.976Z,99522.21
2019-04-23T03:20:08.010Z,99519.59
2019-04-23T03:25:35.642Z,99513.09
2019-04-23T03:28:25.140Z,99523.33
2019-04-23T03:32:01.784Z,99517.27
2019-04-23T03:33:55.462Z,99516.75
2019-04-23T03:38:37.534Z,99519.16
2019-04-23T03:40:57.118Z,99520.30
2019-04-23T03:46:12.285Z,99508.92
2019-04-23T03:48:33.992Z,99508.92
2019-04-23T03:50:52.260Z,99505.72
2019-04-23T03:53:43.160Z,99506.26
2019-04-23T03:58:42.581Z,99490.96
2019-04-23T04:01:11.950Z,99494.77
2019-04-23T04:06:23.531Z,99495.73
2019-04-23T04:08:55.961Z,99497.23
2019-04-23T04:13:53.234Z,99491.16
2019-04-23T04:16:18.230Z,99482.00
2019-04-23T04:21:27.255Z,99478.49
2019-04-23T04:24:01.698Z,99470.75
2019-04-23T04:31:41.548Z,99445.97
2019-04-23T04:34:11.741Z,99460.52
2019-04-23T04:37:11.723Z,99458.05
2019-04-23T04:39:19.469Z,99458.97
2019-04-23T04:41:40.506Z,99462.67
2019-04-23T04:44:26.839Z,99448.44
2019-04-23T04:46:45.841Z,99437.98
2019-04-23T04:49:15.082Z,99435.75
2019-04-23T04:54:17.662Z,99430.19
2019-04-23T04:56:47.231Z,99436.02
2019-04-23T04:59:13.322Z,99429.83
2019-04-23T05:07:02.486Z,99427.38
2019-04-23T05:09:29.281Z,99427.00
2019-04-23T05:16:56.751Z,99421.00
2019-04-23T05:24:35.229Z,99431.83
2019-04-23T05:27:04.546Z,99432.45
2019-04-23T05:29:42.817Z,99432.52
2019-04-23T05:32:10.116Z,99431.22
2019-04-23T05:34:40.088Z,99428.69
2019-04-23T05:37:15.978Z,99426.47
2019-04-23T05:42:33.156Z,99420.64
2019-04-23T05:44:52.530Z,99422.83
2019-04-23T05:47:23.089Z,99422.63
2019-04-23T05:49:54.727Z,99431.51
2019-04-23T05:52:24.019Z,99429.14
2019-04-23T05:54:56.352Z,99433.04
2019-04-23T05:57:33.295Z,99429.75
2019-04-23T05:59:56.919Z,99419.92
2019-04-23T06:02:37.275Z,99420.81
2019-04-23T06:05:03.824Z,99421.56
2019-04-23T06:07:38.951Z,99410.34
2019-04-23T06:10:06.455Z,99406.87
2019-04-23T06:12:37.041Z,99405.48
2019-04-23T06:15:11.554Z,99403.78
2019-04-23T06:17:38.155Z,99401.95
2019-04-23T06:20:16.482Z,99400.75
2019-04-23T06:25:35.757Z,99401.82
2019-04-23T06:30:31.227Z,99405.69
2019-04-23T06:32:51.454Z,99397.08
2019-04-23T06:35:22.532Z,99395.89
2019-04-23T06:38:24.172Z,99390.11
2019-04-23T06:40:26.659Z,99380.58
2019-04-23T06:43:05.341Z,99385.08
2019-04-23T06:45:35.554Z,99389.89
2019-04-23T06:48:15.451Z,99380.23
2019-04-23T06:50:43.399Z,99390.78
2019-04-23T06:53:04.342Z,99381.73
2019-04-23T06:55:42.533Z,99382.47
2019-04-23T06:58:24.043Z,99380.29
2019-04-23T07:00:51.257Z,99375.97
2019-04-23T07:03:25.943Z,99372.17
2019-04-23T07:13:57.725Z,99367.77
2019-04-23T07:16:16.040Z,99376.30
2019-04-23T07:18:48.897Z,99372.47
2019-04-23T07:21:23.562Z,99379.77
2019-04-23T07:29:00.016Z,99372.41
2019-04-23T07:34:01.282Z,99363.55
2019-04-23T07:39:11.665Z,99357.09
2019-04-23T07:42:03.597Z,99359.63
2019-04-23T07:44:42.363Z,99362.67
2019-04-23T07:47:53.759Z,99356.14
2019-04-23T07:50:15.888Z,99353.75
2019-04-23T07:52:41.485Z,99363.36
2019-04-23T07:55:23.635Z,99357.83
2019-04-23T07:57:44.295Z,99364.88
2019-04-23T08:00:24.106Z,99371.38
2019-04-23T08:02:49.955Z,99369.05
2019-04-23T08:07:54.143Z,99369.09
2019-04-23T08:10:22.797Z,99366.53
2019-04-23T08:12:52.755Z,99372.87
2019-04-23T08:15:30.954Z,99364.28
2019-04-23T08:17:58.660Z,99368.41
2019-04-23T08:20:29.960Z,99361.09
2019-04-23T08:23:05.942Z,99363.77
2019-04-23T08:26:13.624Z,99358.89
2019-04-23T08:28:41.971Z,99356.97
2019-04-23T08:31:07.829Z,99353.98
2019-04-23T08:33:44.795Z,99347.77
2019-04-23T08:36:18.200Z,99340.64
2019-04-23T08:38:58.285Z,99340.28
2019-04-23T08:43:46.624Z,99356.56
2019-04-23T08:49:25.760Z,99358.50
2019-04-23T08:51:53.368Z,99356.72
2019-04-23T08:54:39.235Z,99364.91
2019-04-23T08:57:04.089Z,99361.47
2019-04-23T09:02:18.930Z,99362.17
2019-04-23T09:04:43.631Z,99364.17
2019-04-23T09:07:12.891Z,99366.94
2019-04-23T09:09:43.802Z,99362.77
2019-04-23T09:12:14.748Z,99351.52
2019-04-23T09:14:38.120Z,99355.15
2019-04-23T09:17:27.704Z,99353.94
2019-04-23T09:22:25.147Z,99350.55
2019-04-23T09:24:46.872Z,99349.78
2019-04-23T09:27:31.660Z,99343.14
2019-04-23T09:30:06.889Z,99336.74
2019-04-23T09:32:24.819Z,99342.52
2019-04-23T09:35:27.484Z,99331.53
2019-04-23T09:44:14.413Z,99326.11
2019-04-23T09:46:47.293Z,99330.74
2019-04-23T09:49:20.654Z,99335.32
2019-04-23T09:51:55.547Z,99337.85
2019-04-23T09:54:18.478Z,99330.62
2019-04-23T09:56:47.787Z,99338.51
2019-04-23T10:01:45.494Z,99335.89
2019-04-23T10:04:12.542Z,99333.88
2019-04-23T10:06:34.475Z,99332.09
2019-04-23T10:09:06.171Z,99338.60
2019-04-23T10:11:34.864Z,99341.91
2019-04-23T10:14:06.240Z,99333.80
2019-04-23T10:16:36.932Z,99336.79
2019-04-23T10:19:08.029Z,99335.22
2019-04-23T10:21:39.442Z,99326.39
2019-04-23T10:24:09.684Z,99326.70
2019-04-23T10:26:39.986Z,99325.38
2019-04-23T10:29:18.147Z,99332.20
2019-04-23T10:31:49.369Z,99325.47
2019-04-23T10:34:21.031Z,99318.48
2019-04-23T10:36:51.582Z,99326.59
2019-04-23T10:39:26.280Z,99327.44
2019-04-23T10:41:56.994Z,99331.23
2019-04-23T10:44:52.095Z,99326.36
2019-04-23T10:48:30.920Z,99326.11
2019-04-23T10:53:30.008Z,99324.03
2019-04-23T10:56:20.044Z,99320.57
2019-04-23T10:58:34.928Z,99313.66
2019-04-23T11:01:06.326Z,99314.79
2019-04-23T11:03:48.691Z,99309.92
2019-04-23T11:06:17.752Z,99313.47
2019-04-23T11:08:40.592Z,99310.77
2019-04-23T11:11:16.616Z,99316.75
2019-04-23T11:13:48.818Z,99306.22
2019-04-23T11:19:11.294Z,99317.87
2019-04-23T11:21:29.883Z,99313.82
2019-04-23T11:24:02.536Z,99316.79
2019-04-23T11:29:07.459Z,99314.91
2019-04-23T11:31:39.253Z,99306.86
2019-04-23T11:39:05.527Z,99306.33
2019-04-23T11:41:45.686Z,99300.63
2019-04-23T11:44:18.985Z,99307.39
2019-04-23T11:46:53.978Z,99304.16
2019-04-23T11:49:29.541Z,99293.34
2019-04-23T11:51:54.720Z,99293.85
2019-04-23T11:54:21.352Z,99301.43
2019-04-23T11:59:31.821Z,99287.09
2019-04-23T12:02:23.399Z,99291.94
2019-04-23T12:05:24.753Z,99294.91
2019-04-23T12:07:52.336Z,99297.84
2019-04-23T12:13:03.865Z,99295.11
2019-04-23T12:15:32.841Z,99289.42
2019-04-23T12:18:15.048Z,99285.64
2019-04-23T12:20:39.812Z,99295.66
2019-04-23T12:25:51.552Z,99285.20
2019-04-23T12:28:14.087Z,99278.41
2019-04-23T12:30:45.431Z,99274.91
2019-04-23T12:33:20.751Z,99281.95
2019-04-23T12:35:41.711Z,99275.19
2019-04-23T12:38:19.242Z,99272.74
2019-04-23T12:41:10.619Z,99268.66
2019-04-23T12:43:20.695Z,99265.14
2019-04-23T12:45:46.856Z,99259.42
2019-04-23T12:51:17.443Z,99261.86
2019-04-23T12:56:03.734Z,99260.81
2019-04-23T12:58:41.677Z,99256.77
2019-04-23T13:01:10.823Z,99259.45
2019-04-23T13:03:32.946Z,99263.80
2019-04-23T13:06:11.167Z,99257.00
2019-04-23T13:08:44.231Z,99250.74
2019-04-23T13:11:14.088Z,99245.59
2019-04-23T13:13:48.377Z,99248.81
2019-04-23T13:16:22.169Z,99246.65
2019-04-23T13:18:49.740Z,99252.89
2019-04-23T13:21:45.288Z,99247.20
2019-04-23T13:23:55.602Z,99254.78
2019-04-23T13:26:30.732Z,99248.81
2019-04-23T13:29:16.122Z,99256.66
2019-04-23T13:31:34.694Z,99254.78
2019-04-23T13:34:16.281Z,99249.89
2019-04-23T13:39:21.195Z,99251.02
2019-04-23T13:41:47.864Z,99255.66
2019-04-23T13:44:19.319Z,99248.08
2019-04-23T13:46:52.585Z,99253.49
2019-04-23T13:49:28.382Z,99253.24
2019-04-23T13:51:58.785Z,99249.98
2019-04-23T13:54:50.221Z,99250.27
2019-04-23T13:57:36.497Z,99249.99
2019-04-23T13:59:38.930Z,99244.02
2019-04-23T14:02:03.281Z,99237.52
2019-04-23T14:07:34.633Z,99232.88
2019-04-23T14:10:07.228Z,99238.82
2019-04-23T14:12:31.974Z,99237.19
2019-04-23T14:15:24.191Z,99235.28
2019-04-23T14:20:08.695Z,99220.66
2019-04-23T14:25:10.021Z,99230.67
2019-04-23T14:27:51.399Z,99222.23
2019-04-23T14:32:47.020Z,99223.03
2019-04-23T14:38:02.380Z,99215.66
2019-04-23T14:40:26.549Z,99213.47
2019-04-23T14:43:04.342Z,99208.58
2019-04-23T14:46:25.122Z,99214.80
2019-04-23T14:48:10.370Z,99212.91
2019-04-23T14:53:12.128Z,99209.41
2019-04-23T14:55:49.008Z,99216.13
2019-04-23T14:58:20.330Z,99213.97
2019-04-23T15:00:54.120Z,99208.56
2019-04-23T15:03:24.938Z,99206.67
2019-04-23T15:05:59.709Z,99212.06
2019-04-23T15:08:25.161Z,99209.90
2019-04-23T15:11:06.535Z,99210.47
2019-04-23T15:13:22.711Z,99209.35
2019-04-23T15:16:02.892Z,99208.55
2019-04-23T15:19:07.952Z,99209.05
2019-04-23T15:28:41.217Z,99208.94
2019-04-23T15:31:33.040Z,99206.78
2019-04-23T15:34:10.780Z,99210.00
2019-04-23T15:36:50.814Z,99201.89
2019-04-23T15:39:26.805Z,99201.33
2019-04-23T15:46:47.140Z,99193.17
2019-04-23T15:54:19.530Z,99193.39
2019-04-23T15:56:54.807Z,99183.09
2019-04-23T15:59:28.994Z,99191.98
2019-04-23T16:01:43.573Z,99188.48
2019-04-23T16:03:57.601Z,99181.17
2019-04-23T16:06:30.916Z,99183.34
2019-04-23T16:09:17.898Z,99184.41
2019-04-23T16:11:51.780Z,99183.58
2019-04-23T16:14:35.804Z,99184.36
2019-04-23T16:17:09.893Z,99175.73
2019-04-23T16:20:09.266Z,99178.94
2019-04-23T16:22:24.904Z,99181.36
2019-04-23T16:25:00.917Z,99187.02
2019-04-23T16:27:19.631Z,99181.84
2019-04-23T16:30:12.845Z,99183.47
2019-04-23T16:32:57.770Z,99190.72
2019-04-23T16:38:07.736Z,99189.34
2019-04-23T16:43:03.540Z,99187.94
2019-04-23T16:48:17.207Z,99194.63
2019-04-23T16:50:43.922Z,99191.61
2019-04-23T16:53:21.520Z,99181.88
2019-04-23T16:55:38.381Z,99186.17
2019-04-23T16:58:21.863Z,99188.24
2019-04-23T17:00:51.593Z,99187.39
2019-04-23T17:05:50.707Z,99193.64
2019-04-23T17:13:24.080Z,99193.07
2019-04-23T17:15:58.690Z,99198.39
2019-04-23T17:20:58.355Z,99197.86
2019-04-23T17:23:38.867Z,99199.46
2019-04-23T17:26:04.207Z,99195.41
2019-04-23T17:28:56.252Z,99193.28
2019-04-23T17:31:26.593Z,99195.41
2019-04-23T17:33:43.468Z,99202.66
2019-04-23T17:39:06.797Z,99196.37
2019-04-23T17:41:50.091Z,99200.37
2019-04-23T17:46:54.190Z,99210.63
2019-04-23T17:49:24.872Z,99212.22
2019-04-23T17:51:59.192Z,99208.70
2019-04-23T17:54:24.766Z,99213.25
2019-04-23T18:05:02.821Z,99223.13
2019-04-23T18:07:38.387Z,99216.09
2019-04-23T18:10:09.815Z,99223.08
2019-04-23T18:12:40.541Z,99218.42
2019-04-23T18:17:35.470Z,99216.54
2019-04-23T18:20:16.305Z,99218.42
2019-04-23T18:22:56.857Z,99216.78
2019-04-23T18:25:45.746Z,99217.28
2019-04-23T18:28:08.458Z,99221.55
2019-04-23T18:31:11.256Z,99218.57
2019-04-23T18:34:03.734Z,99224.83
2019-04-23T18:36:19.723Z,99221.55
2019-04-23T18:39:08.550Z,99222.05
2019-04-23T18:41:29.064Z,99225.17
2019-04-23T18:44:06.978Z,99227.30
2019-04-23T18:46:36.732Z,99223.06
2019-04-23T18:48:58.187Z,99216.08
2019-04-23T18:51:38.396Z,99222.86
2019-04-23T18:54:03.085Z,99219.09
2019-04-23T18:59:10.706Z,99222.25
2019-04-23T19:02:17.322Z,99222.97
2019-04-23T19:05:03.815Z,99225.85
2019-04-23T19:07:42.972Z,99222.81
2019-04-23T19:10:29.190Z,99221.77
2019-04-23T19:13:28.698Z,99223.59
2019-04-23T19:15:37.997Z,99224.59
2019-04-23T19:18:14.245Z,99222.91
2019-04-23T19:20:55.787Z,99230.17
2019-04-23T19:25:46.800Z,99226.60
2019-04-23T19:28:34.555Z,99235.45
2019-04-23T19:31:26.102Z,99236.55
2019-04-23T19:36:49.284Z,99239.14
2019-04-23T19:39:21.435Z,99239.84
2019-04-23T19:44:22.205Z,99242.89
2019-04-23T19:46:54.592Z,99238.84
2019-04-23T19:51:53.217Z,99237.81
2019-04-23T19:59:41.025Z,99236.81
2019-04-23T20:02:00.165Z,99241.13
2019-04-23T20:04:39.333Z,99238.96
2019-04-23T20:09:43.169Z,99236.38
2019-04-23T20:12:06.253Z,99243.34
2019-04-23T20:14:49.754Z,99243.80
2019-04-23T20:19:44.207Z,99236.20
2019-04-23T20:22:26.116Z,99235.88
2019-04-23T20:24:57.629Z,99241.27
2019-04-23T20:27:35.135Z,99233.77
2019-04-23T20:30:33.888Z,99233.77
2019-04-23T20:35:21.558Z,99230.55
2019-04-23T20:40:31.231Z,99233.30
2019-04-23T20:42:53.496Z,99236.20
2019-04-23T20:45:27.381Z,99239.05
2019-04-23T20:47:57.780Z,99239.22
2019-04-23T20:50:34.493Z,99242.14
2019-04-23T20:52:57.472Z,99230.25
2019-04-23T20:55:54.611Z,99229.95
2019-04-23T20:58:20.930Z,99227.21
2019-04-23T21:01:27.380Z,99224.11
2019-04-23T21:06:30.086Z,99219.56
2019-04-23T21:11:24.166Z,99200.73
2019-04-23T21:16:36.266Z,99203.87
2019-04-23T21:18:54.997Z,99198.14
2019-04-23T21:21:39.746Z,99187.91
2019-04-23T21:24:01.332Z,99186.56
2019-04-23T21:26:46.066Z,99187.67
2019-04-23T21:29:04.055Z,99179.91
2019-04-23T21:31:48.447Z,99176.25
2019-04-23T21:34:21.098Z,99168.19
2019-04-23T21:36:48.208Z,99168.77
2019-04-23T21:39:38.524Z,99172.41
2019-04-23T21:42:21.034Z,99170.09
2019-04-23T21:44:55.648Z,99179.01
2019-04-23T21:47:25.531Z,99168.17
2019-04-23T21:50:10.694Z,99167.67
2019-04-23T21:52:49.009Z,99165.97
2019-04-23T21:57:46.339Z,99162.98
2019-04-23T21:59:59.303Z,99159.09
2019-04-23T22:02:50.519Z,99162.66
2019-04-23T22:05:09.430Z,99159.52
2019-04-23T22:07:51.766Z,99165.77
2019-04-23T22:10:11.674Z,99161.94
2019-04-23T22:13:02.197Z,99161.51
2019-04-23T22:15:13.041Z,99159.15
2019-04-23T22:20:25.501Z,99160.78
2019-04-23T22:25:21.886Z,99162.80
2019-04-23T22:28:10.143Z,99162.70
2019-04-23T22:30:30.688Z,99168.09
2019-04-23T22:33:02.605Z,99159.52
2019-04-23T22:35:35.124Z,99158.53
2019-04-23T22:38:15.826Z,99152.81
2019-04-23T22:40:34.874Z,99149.33
2019-04-23T22:43:25.268Z,99139.80
2019-04-23T22:45:43.200Z,99131.00
2019-04-23T22:48:17.955Z,99141.28
2019-04-23T22:50:59.226Z,99136.35
2019-04-23T22:55:57.364Z,99138.59
2019-04-23T22:58:36.894Z,99142.44
2019-04-23T23:03:44.141Z,99145.16
2019-04-23T23:09:02.617Z,99141.63
2019-04-23T23:11:13.655Z,99140.21
2019-04-23T23:14:09.729Z,99150.27
2019-04-23T23:16:21.353Z,99153.70
2019-04-23T23:19:05.098Z,99153.25
2019-04-23T23:21:38.139Z,99150.23
2019-04-23T23:23:59.625Z,99150.93
2019-04-23T23:26:31.723Z,99146.91
2019-04-23T23:29:00.684Z,99139.80
2019-04-23T23:31:38.080Z,99144.24
2019-04-23T23:34:09.847Z,99139.22
2019-04-23T23:36:46.879Z,99130.58
2019-04-23T23:39:16.226Z,99141.63
2019-04-23T23:41:48.900Z,99139.30
2019-04-23T23:49:22.145Z,99127.38
2019-04-23T23:51:49.573Z,99118.47
2019-04-23T23:57:11.193Z,99119.66
2019-04-23T23:59:48.160Z,99127.74
